Time;durP1;ratioP1;P1;durP2;ratioP2;P2;SDS_P1;SDS_P2;PMS_P1;PMS_P2;Temp;Humidity;BMP_temperature;BMP_pressure;BME280_temperature;BME280_humidity;BME280_pressure;Samples;Min_cycle;Max_cycle;Signal;HPM_P1;HPM_P2
2021/12/12 00:02:25;;;;;;;77.72;33.72;;;76.90;2227.20;;;;;;5033984;28;20109;-55
2021/12/12 00:04:53;;;;;;;15.98;7.55;;;76.80;2227.20;;;;;;5033624;28;20036;-53
2021/12/12 00:07:24;;;;;;;5.75;2.95;;;76.80;2227.20;;;;;;5033541;28;20378;-55
2021/12/12 00:09:54;;;;;;;15.68;6.72;;;76.80;2227.20;;;;;;5033530;28;20025;-54
2021/12/12 00:12:24;;;;;;;10.88;4.60;;;76.80;2227.20;;;;;;5033113;28;20460;-53
2021/12/12 00:14:51;;;;;;;7.00;3.58;;;52.00;2227.20;;;;;;5033156;28;20497;-57
2021/12/12 00:17:18;;;;;;;35.55;14.95;;;52.10;2227.20;;;;;;5033538;28;20442;-59
2021/12/12 00:19:43;;;;;;;34.67;17.52;;;52.10;2227.20;;;;;;5033066;28;20437;-59
2021/12/12 00:22:15;;;;;;;22.85;9.82;;;51.90;2227.20;;;;;;5032906;28;20041;-54
2021/12/12 00:24:42;;;;;;;43.97;24.70;;;52.00;2227.20;;;;;;5032813;28;20132;-56
2021/12/12 00:27:08;;;;;;;4.00;2.75;;;52.10;2227.20;;;;;;5032979;28;20036;-58
2021/12/12 00:29:34;;;;;;;42.10;18.52;;;52.00;2227.20;;;;;;5032957;28;20029;-55
2021/12/12 00:32:04;;;;;;;6.07;2.30;;;52.00;2227.20;;;;;;5033217;28;20463;-58
2021/12/12 00:34:35;;;;;;;3.53;1.70;;;52.00;2227.20;;;;;;5030295;28;20683;-53
2021/12/12 00:37:03;;;;;;;11.55;6.22;;;51.90;2227.20;;;;;;5028330;28;20115;-55
2021/12/12 00:39:31;;;;;;;5.03;2.08;;;52.00;2227.20;;;;;;5010519;28;20681;-58
2021/12/12 00:41:59;;;;;;;31.30;14.35;;;52.00;2227.20;;;;;;5028448;28;20471;-66
2021/12/12 00:44:26;;;;;;;17.17;7.85;;;52.00;2227.20;;;;;;5028389;28;20025;-55
2021/12/12 00:46:55;;;;;;;10.23;4.53;;;52.10;2227.20;;;;;;5028692;28;20029;-61
2021/12/12 00:49:22;;;;;;;4.95;2.55;;;52.10;2227.20;;;;;;5028605;28;20036;-67
2021/12/12 00:51:49;;;;;;;120.15;50.13;;;52.10;2227.20;;;;;;5027889;28;20394;-55
2021/12/12 00:54:17;;;;;;;91.63;40.67;;;76.80;2227.20;;;;;;5028253;28;20049;-57
2021/12/12 00:56:44;;;;;;;10.50;3.92;;;76.80;2227.20;;;;;;5028364;28;20030;-68
2021/12/12 00:59:11;;;;;;;5.40;3.38;;;76.90;2227.20;;;;;;5028739;28;20025;-59
2021/12/12 01:01:46;;;;;;;13.23;7.22;;;76.90;2227.20;;;;;;5028221;28;20537;-56
2021/12/12 01:04:23;;;;;;;2.55;1.55;;;76.90;2227.20;;;;;;5031736;28;20025;-55
2021/12/12 01:06:51;;;;;;;6.18;3.53;;;76.80;2227.20;;;;;;5032267;28;20029;-55
2021/12/12 01:09:25;;;;;;;8.77;3.85;;;76.80;2227.20;;;;;;5032043;28;20422;-58
2021/12/12 01:11:53;;;;;;;4.55;2.08;;;76.80;2227.20;;;;;;5032384;28;20486;-54
2021/12/12 01:14:25;;;;;;;5.05;2.75;;;76.80;2227.20;;;;;;5032106;28;20233;-55
2021/12/12 01:17:17;;;;;;;29.70;16.58;;;52.10;2227.20;;;;;;5032040;28;20428;-55
2021/12/12 01:19:50;;;;;;;11.25;4.88;;;76.90;2227.20;;;;;;5032173;28;20021;-58
2021/12/12 01:22:24;;;;;;;8.05;3.83;;;76.80;2227.20;;;;;;5031851;28;20454;-54
2021/12/12 01:24:51;;;;;;;30.13;11.45;;;76.80;2227.20;;;;;;5032061;28;20053;-69
2021/12/12 01:27:18;;;;;;;8.95;4.15;;;76.90;2227.20;;;;;;5031905;28;20029;-54
2021/12/12 01:29:45;;;;;;;11.07;4.65;;;77.00;2227.20;;;;;;5031563;28;20028;-60
2021/12/12 01:32:22;;;;;;;4.68;2.60;;;76.90;2227.20;;;;;;5031968;28;20030;-63
2021/12/12 01:34:50;;;;;;;9.07;4.10;;;76.90;2227.20;;;;;;5031780;28;20037;-55
2021/12/12 01:39:55;;;;;;;9.18;5.95;;;76.80;2227.20;;;;;;5031876;28;20100;-55
2021/12/12 01:42:26;;;;;;;5.35;3.08;;;76.80;2227.20;;;;;;5031564;28;20029;-57
2021/12/12 01:44:58;;;;;;;3.72;2.38;;;76.90;2227.20;;;;;;5031749;28;20098;-62
2021/12/12 01:47:46;;;;;;;6.32;3.22;;;76.80;2227.20;;;;;;5031824;28;20579;-66
2021/12/12 01:50:19;;;;;;;19.90;9.10;;;76.80;2227.20;;;;;;5031675;28;20036;-61
2021/12/12 01:52:48;;;;;;;5.88;3.45;;;76.80;2227.20;;;;;;5031271;28;20034;-70
2021/12/12 01:55:25;;;;;;;6.13;3.33;;;76.80;2227.20;;;;;;5031219;28;20791;-66
2021/12/12 01:57:54;;;;;;;4.32;2.63;;;76.80;2227.20;;;;;;5031561;28;20044;-56
2021/12/12 02:00:37;;;;;;;14.13;6.55;;;52.10;2227.20;;;;;;5031597;28;20029;-68
2021/12/12 02:03:07;;;;;;;8.18;3.80;;;76.80;2227.20;;;;;;5031387;28;20029;-70
2021/12/12 02:05:34;;;;;;;33.00;11.85;;;52.10;2227.20;;;;;;5031332;28;20029;-55
2021/12/12 02:08:04;;;;;;;13.20;6.95;;;52.00;2227.20;;;;;;5031172;28;20105;-61
2021/12/12 02:10:46;;;;;;;6.35;2.92;;;52.00;2227.20;;;;;;5012787;28;20032;-69
2021/12/12 02:13:15;;;;;;;16.48;9.02;;;52.10;2227.20;;;;;;5030972;28;20029;-62
2021/12/12 02:15:44;;;;;;;9.13;6.47;;;52.10;2227.20;;;;;;5031220;28;20065;-68
2021/12/12 02:18:13;;;;;;;4.40;2.72;;;52.00;2227.20;;;;;;5031123;28;20030;-60
2021/12/12 02:37:26;;;;;;;9.30;5.40;;;51.80;2227.20;;;;;;4933250;29;20038;-58
2021/12/12 02:39:52;;;;;;;12.60;8.52;;;51.80;2227.20;;;;;;4933071;29;20043;-60
2021/12/12 02:42:21;;;;;;;11.85;7.60;;;51.80;2227.20;;;;;;4932839;29;20024;-64
2021/12/12 02:44:49;;;;;;;9.57;5.10;;;51.70;2227.20;;;;;;4932731;29;20044;-65
2021/12/12 02:47:19;;;;;;;7.53;4.55;;;51.70;2227.20;;;;;;4932696;29;20114;-62
2021/12/12 02:52:21;;;;;;;20.45;9.98;;;51.60;2227.20;;;;;;4932436;29;20038;-65
2021/12/12 02:54:47;;;;;;;10.02;6.25;;;51.50;2227.20;;;;;;4932363;29;20067;-58
2021/12/12 02:57:14;;;;;;;12.25;7.15;;;51.40;2227.20;;;;;;4932696;29;20573;-54
2021/12/12 02:59:43;;;;;;;8.95;5.57;;;51.40;2227.20;;;;;;4932746;29;20059;-58
2021/12/12 03:02:15;;;;;;;14.85;8.57;;;51.50;2227.20;;;;;;4932440;29;20035;-62
2021/12/12 03:04:41;;;;;;;11.23;8.00;;;51.40;2227.20;;;;;;5029879;28;20034;-59
2021/12/12 03:07:10;;;;;;;13.43;8.68;;;51.50;2227.20;;;;;;5031849;28;20031;-64
2021/12/12 03:09:40;;;;;;;10.88;7.93;;;51.50;2227.20;;;;;;5031525;28;20026;-64
2021/12/12 03:12:19;;;;;;;11.00;7.40;;;51.40;2227.20;;;;;;5031602;28;20057;-56
2021/12/12 03:14:47;;;;;;;15.27;8.43;;;51.50;2227.20;;;;;;5031903;28;20048;-59
2021/12/12 03:17:19;;;;;;;12.40;6.38;;;51.40;2227.20;;;;;;5013548;28;20120;-66
2021/12/12 03:19:47;;;;;;;12.25;6.90;;;51.50;2227.20;;;;;;5031486;28;20036;-55
2021/12/12 03:22:14;;;;;;;11.80;6.20;;;51.50;2227.20;;;;;;5031658;28;20033;-66
2021/12/12 03:24:41;;;;;;;10.43;6.93;;;51.40;2227.20;;;;;;5030998;28;20449;-65
2021/12/12 03:27:07;;;;;;;12.13;6.28;;;51.30;2227.20;;;;;;5031065;28;20534;-66
2021/12/12 03:29:36;;;;;;;8.18;5.18;;;51.30;2227.20;;;;;;5031384;28;20049;-56
2021/12/12 03:32:06;;;;;;;6.68;4.43;;;51.30;2227.20;;;;;;5031341;28;20032;-62
2021/12/12 03:34:36;;;;;;;7.72;5.00;;;51.30;2227.20;;;;;;5031340;28;20113;-66
2021/12/12 03:37:04;;;;;;;12.35;5.82;;;51.20;2227.20;;;;;;5031306;28;20471;-57
2021/12/12 03:39:33;;;;;;;10.75;6.75;;;51.20;2227.20;;;;;;5031009;28;20452;-55
2021/12/12 03:42:05;;;;;;;9.45;6.15;;;26.50;2201.60;;;;;;5031139;28;20036;-56
2021/12/12 03:44:33;;;;;;;11.70;7.93;;;26.40;2201.60;;;;;;5031041;28;20108;-55
2021/12/12 03:47:15;;;;;;;11.20;6.55;;;26.50;2201.60;;;;;;5030770;28;20033;-54
2021/12/12 03:49:42;;;;;;;13.65;6.88;;;26.50;2201.60;;;;;;5031061;28;20025;-64
2021/12/12 03:52:09;;;;;;;11.02;6.30;;;26.50;2201.60;;;;;;5030750;28;20033;-59
2021/12/12 03:54:35;;;;;;;6.57;4.15;;;51.20;2227.20;;;;;;5030571;28;20622;-63
2021/12/12 03:57:03;;;;;;;11.35;7.13;;;26.50;2201.60;;;;;;5030828;28;20163;-55
2021/12/12 03:59:29;;;;;;;10.57;6.32;;;26.40;2201.60;;;;;;5030622;28;20033;-57
2021/12/12 04:01:55;;;;;;;7.75;5.10;;;26.50;2201.60;;;;;;5030557;28;20041;-54
2021/12/12 04:04:37;;;;;;;15.10;11.20;;;26.20;2201.60;;;;;;5030821;28;20115;-60
2021/12/12 04:07:15;;;;;;;8.80;5.93;;;26.20;2201.60;;;;;;5030767;28;20033;-56
2021/12/12 04:09:41;;;;;;;12.07;7.28;;;26.30;2201.60;;;;;;5030365;28;20498;-54
2021/12/12 04:12:09;;;;;;;9.20;6.13;;;26.40;2201.60;;;;;;5030756;28;20160;-59
2021/12/12 04:14:36;;;;;;;11.27;8.05;;;26.40;2201.60;;;;;;5030652;28;20033;-54
2021/12/12 04:17:06;;;;;;;14.40;12.40;;;26.40;2201.60;;;;;;5030713;28;20037;-59
2021/12/12 04:19:32;;;;;;;12.82;8.25;;;26.40;2201.60;;;;;;5030500;28;20036;-64
2021/12/12 04:22:00;;;;;;;10.20;7.15;;;26.40;2201.60;;;;;;5030272;28;20113;-59
2021/12/12 04:24:29;;;;;;;10.48;7.93;;;26.30;2201.60;;;;;;5029944;28;20502;-53
2021/12/12 04:26:56;;;;;;;9.23;6.97;;;26.30;2201.60;;;;;;5030240;28;20041;-61
2021/12/12 04:29:34;;;;;;;8.27;5.65;;;26.40;2201.60;;;;;;5030493;28;20410;-63
2021/12/12 04:32:08;;;;;;;12.32;7.32;;;26.40;2201.60;;;;;;5030483;28;20052;-59
2021/12/12 04:34:35;;;;;;;;;;;26.20;2201.60;;;;;;5030612;28;20030;-57
2021/12/12 04:37:02;;;;;;;13.90;11.07;;;26.20;2201.60;;;;;;5030269;28;20377;-54
2021/12/12 04:39:31;;;;;;;8.88;4.68;;;26.10;2201.60;;;;;;5030178;28;20068;-61
2021/12/12 04:42:10;;;;;;;7.53;5.72;;;26.10;2201.60;;;;;;5030174;28;20029;-65
2021/12/12 04:44:38;;;;;;;10.50;6.72;;;25.90;2201.60;;;;;;5030292;28;20063;-55
2021/12/12 04:50:13;;;;;;;9.95;7.70;;;26.00;2201.60;;;;;;5030314;28;20076;-64
2021/12/12 04:52:56;;;;;;;11.05;10.13;;;26.10;2201.60;;;;;;5012027;28;20037;-62
2021/12/12 04:55:51;;;;;;;8.10;6.25;;;26.00;2201.60;;;;;;5029821;28;20053;-58
2021/12/12 04:58:26;;;;;;;10.10;6.72;;;26.00;2201.60;;;;;;5028051;28;20032;-68
2021/12/12 05:00:57;;;;;;;10.38;7.65;;;26.00;2201.60;;;;;;5030239;28;20025;-65
2021/12/12 05:03:41;;;;;;;12.18;6.03;;;26.00;2201.60;;;;;;5030169;28;20053;-68
2021/12/12 05:06:13;;;;;;;33.65;27.85;;;25.70;2201.60;;;;;;5029933;28;20108;-57
2021/12/12 05:08:59;;;;;;;13.02;8.27;;;25.70;2201.60;;;;;;5029687;28;20025;-55
2021/12/12 05:11:33;;;;;;;17.67;14.00;;;25.80;2201.60;;;;;;5029793;28;20083;-67
2021/12/12 05:14:07;;;;;;;11.48;9.25;;;25.70;2201.60;;;;;;5029867;28;20044;-62
2021/12/12 05:16:38;;;;;;;11.13;6.47;;;25.90;2201.60;;;;;;5030157;28;20495;-68
2021/12/12 05:19:12;;;;;;;13.02;11.82;;;25.90;2201.60;;;;;;5029952;28;20108;-59
2021/12/12 05:21:44;;;;;;;27.40;14.40;;;26.10;2201.60;;;;;;5029778;28;20375;-60
2021/12/12 05:24:12;;;;;;;11.20;8.15;;;26.00;2201.60;;;;;;5029467;28;20491;-67
2021/12/12 05:26:49;;;;;;;15.18;12.55;;;26.10;2201.60;;;;;;5029555;28;20025;-63
2021/12/12 05:29:19;;;;;;;11.70;9.55;;;26.10;2201.60;;;;;;5029559;28;20030;-65
2021/12/12 05:31:52;;;;;;;11.45;8.57;;;26.10;2201.60;;;;;;5029583;28;20032;-56
2021/12/12 05:34:19;;;;;;;12.05;9.75;;;26.00;2201.60;;;;;;5029550;28;20083;-66
2021/12/12 05:36:47;;;;;;;11.82;7.88;;;26.10;2201.60;;;;;;5029868;28;20419;-67
2021/12/12 05:39:15;;;;;;;10.77;7.90;;;26.10;2201.60;;;;;;5029778;28;20021;-67
2021/12/12 05:41:41;;;;;;;17.38;12.95;;;26.00;2201.60;;;;;;5029727;28;20025;-67
2021/12/12 05:44:07;;;;;;;9.75;6.32;;;26.10;2201.60;;;;;;5011414;28;20065;-67
2021/12/12 05:46:34;;;;;;;11.43;6.97;;;26.10;2201.60;;;;;;5029957;28;20029;-64
2021/12/12 05:49:04;;;;;;;9.63;7.10;;;26.10;2201.60;;;;;;5030950;28;20539;-66
2021/12/12 05:51:31;;;;;;;12.52;7.10;;;26.10;2201.60;;;;;;5033407;28;20036;-56
2021/12/12 05:53:57;;;;;;;10.65;6.50;;;26.20;2201.60;;;;;;5033065;28;20398;-67
2021/12/12 05:56:25;;;;;;;8.15;3.95;;;26.20;2201.60;;;;;;5033077;28;20034;-66
2021/12/12 05:58:52;;;;;;;10.90;5.63;;;25.90;2201.60;;;;;;5033083;28;20041;-65
2021/12/12 06:01:19;;;;;;;10.70;6.72;;;25.80;2201.60;;;;;;5032816;28;20068;-64
2021/12/12 06:03:46;;;;;;;26.92;17.60;;;25.70;2201.60;;;;;;5033022;28;20057;-62
2021/12/12 06:06:15;;;;;;;14.35;11.25;;;25.90;2201.60;;;;;;5032909;28;20422;-63
2021/12/12 06:08:43;;;;;;;10.00;6.63;;;26.00;2201.60;;;;;;5032737;28;20471;-66
2021/12/12 06:11:09;;;;;;;10.40;7.03;;;26.00;2201.60;;;;;;5032625;28;20021;-65
2021/12/12 06:13:37;;;;;;;13.05;8.00;;;26.00;2201.60;;;;;;5032788;28;20030;-63
2021/12/12 06:16:05;;;;;;;10.77;8.77;;;26.10;2201.60;;;;;;5033107;28;20402;-65
2021/12/12 06:18:32;;;;;;;56.03;33.95;;;26.00;2201.60;;;;;;5032688;28;20025;-63
2021/12/12 06:20:59;;;;;;;40.50;27.80;;;26.10;2201.60;;;;;;5032569;28;20037;-62
2021/12/12 06:23:26;;;;;;;9.15;6.60;;;26.20;2201.60;;;;;;5032401;28;20495;-63
2021/12/12 06:25:52;;;;;;;9.60;6.30;;;26.10;2201.60;;;;;;5032580;28;20030;-56
2021/12/12 06:28:31;;;;;;;13.52;7.25;;;26.10;2201.60;;;;;;5032318;28;20029;-63
2021/12/12 06:30:58;;;;;;;12.18;7.35;;;26.20;2201.60;;;;;;5032319;28;20472;-64
2021/12/12 06:33:24;;;;;;;16.10;11.63;;;26.40;2201.60;;;;;;5032594;28;20022;-66
2021/12/12 06:35:50;;;;;;;9.77;6.70;;;26.20;2201.60;;;;;;5032211;28;20037;-55
2021/12/12 06:38:17;;;;;;;11.73;8.15;;;26.40;2201.60;;;;;;5027095;28;20029;-57
2021/12/12 06:40:44;;;;;;;14.05;11.73;;;26.20;2201.60;;;;;;5022621;28;20149;-66
2021/12/12 06:43:13;;;;;;;10.95;8.07;;;26.20;2201.60;;;;;;5021011;28;20037;-62
2021/12/12 06:45:39;;;;;;;11.60;7.60;;;26.20;2201.60;;;;;;5021561;28;20018;-53
2021/12/12 06:48:08;;;;;;;12.48;8.35;;;26.50;2201.60;;;;;;5022732;28;20018;-55
2021/12/12 06:50:36;;;;;;;13.65;11.93;;;26.10;2201.60;;;;;;5021457;28;20084;-54
2021/12/12 06:53:04;;;;;;;14.25;11.00;;;26.20;2201.60;;;;;;5021262;28;20075;-62
2021/12/12 06:55:30;;;;;;;13.77;8.10;;;26.20;2201.60;;;;;;5022304;28;20041;-60
2021/12/12 06:57:56;;;;;;;16.10;13.45;;;26.40;2201.60;;;;;;5022285;28;20021;-66
2021/12/12 07:00:25;;;;;;;27.60;24.58;;;26.30;2201.60;;;;;;5030941;28;20035;-67
2021/12/12 07:02:52;;;;;;;58.88;45.35;;;26.40;2201.60;;;;;;5031991;28;20029;-56
2021/12/12 07:05:21;;;;;;;60.95;33.78;;;26.50;2201.60;;;;;;5031719;28;20026;-67
2021/12/12 07:07:49;;;;;;;20.77;15.40;;;51.20;2227.20;;;;;;5031684;28;20037;-54
2021/12/12 07:10:18;;;;;;;13.23;9.20;;;26.50;2201.60;;;;;;5031416;28;20025;-64
2021/12/12 07:12:45;;;;;;;25.02;16.90;;;26.50;2201.60;;;;;;5031751;28;20100;-53
2021/12/12 07:15:14;;;;;;;19.55;14.60;;;26.50;2201.60;;;;;;5031562;28;20037;-67
2021/12/12 07:17:41;;;;;;;15.65;11.98;;;26.40;2201.60;;;;;;5031703;28;20057;-61
2021/12/12 07:20:10;;;;;;;18.80;14.73;;;26.20;2201.60;;;;;;5031452;28;20029;-58
2021/12/12 07:22:36;;;;;;;19.77;14.27;;;26.30;2201.60;;;;;;5031271;28;20025;-54
2021/12/12 07:25:05;;;;;;;26.02;23.10;;;26.40;2201.60;;;;;;5031604;28;20065;-58
2021/12/12 07:27:31;;;;;;;17.17;12.77;;;51.20;2227.20;;;;;;5031517;28;20017;-56
2021/12/12 07:29:58;;;;;;;15.35;10.52;;;26.30;2201.60;;;;;;5031387;28;20021;-65
2021/12/12 07:32:26;;;;;;;15.45;10.55;;;26.40;2201.60;;;;;;5031300;28;20156;-60
2021/12/12 07:34:52;;;;;;;14.52;8.55;;;26.30;2201.60;;;;;;5031194;28;20037;-67
2021/12/12 07:37:18;;;;;;;16.38;12.50;;;26.20;2201.60;;;;;;5030917;28;20069;-58
2021/12/12 07:39:45;;;;;;;17.98;13.63;;;26.10;2201.60;;;;;;5031234;28;20487;-66
2021/12/12 07:42:14;;;;;;;17.73;12.25;;;26.10;2201.60;;;;;;5031149;28;20022;-68
2021/12/12 07:44:40;;;;;;;18.92;14.88;;;26.30;2201.60;;;;;;5031095;28;20033;-65
2021/12/12 07:47:09;;;;;;;21.80;12.85;;;26.20;2201.60;;;;;;5030948;28;20022;-67
2021/12/12 07:49:38;;;;;;;16.70;12.80;;;26.40;2201.60;;;;;;5031093;28;20060;-55
2021/12/12 07:52:11;;;;;;;18.30;12.35;;;26.50;2201.60;;;;;;5030999;28;20061;-65
2021/12/12 07:54:37;;;;;;;18.65;14.02;;;26.30;2201.60;;;;;;5030578;28;20554;-63
2021/12/12 07:57:04;;;;;;;25.23;19.75;;;26.30;2201.60;;;;;;5031029;28;20492;-64
2021/12/12 07:59:31;;;;;;;19.15;11.40;;;25.90;2201.60;;;;;;5030732;28;20053;-66
2021/12/12 08:01:58;;;;;;;16.58;12.23;;;26.00;2201.60;;;;;;5030523;28;20510;-58
2021/12/12 08:04:27;;;;;;;21.65;15.45;;;26.10;2201.60;;;;;;5030782;28;20112;-66
2021/12/12 08:06:53;;;;;;;19.92;13.57;;;26.10;2201.60;;;;;;5030629;28;20060;-64
2021/12/12 08:09:22;;;;;;;22.50;17.15;;;26.20;2201.60;;;;;;5030386;28;20038;-55
2021/12/12 08:11:48;;;;;;;63.95;44.45;;;26.30;2201.60;;;;;;5030187;28;20028;-64
2021/12/12 08:14:20;;;;;;;29.75;15.57;;;26.30;2201.60;;;;;;5029914;28;20475;-66
2021/12/12 08:16:47;;;;;;;34.45;24.08;;;26.40;2201.60;;;;;;5030044;28;20045;-60
2021/12/12 08:19:14;;;;;;;27.17;17.45;;;26.30;2201.60;;;;;;5026509;28;20025;-61
2021/12/12 08:21:42;;;;;;;24.95;17.15;;;26.20;2201.60;;;;;;5019114;28;20046;-57
2021/12/12 08:24:10;;;;;;;65.47;55.20;;;25.90;2201.60;;;;;;5010189;28;20112;-63
2021/12/12 08:26:39;;;;;;;26.88;18.55;;;25.90;2201.60;;;;;;5010640;28;20160;-55
2021/12/12 08:29:09;;;;;;;35.20;22.60;;;26.00;2201.60;;;;;;5011368;28;20025;-55
2021/12/12 08:31:36;;;;;;;23.67;15.23;;;26.10;2201.60;;;;;;5022652;28;20147;-61
2021/12/12 08:34:08;;;;;;;23.13;16.48;;;26.00;2201.60;;;;;;5018533;28;20025;-55
2021/12/12 08:36:36;;;;;;;25.95;18.58;;;26.00;2201.60;;;;;;5018321;28;20037;-65
2021/12/12 08:39:05;;;;;;;27.83;23.13;;;26.00;2201.60;;;;;;5015085;28;20022;-62
2021/12/12 08:41:31;;;;;;;22.67;17.85;;;26.00;2201.60;;;;;;5010256;28;20022;-58
2021/12/12 08:43:57;;;;;;;37.03;26.25;;;26.10;2201.60;;;;;;5015699;28;20029;-61
2021/12/12 08:46:24;;;;;;;30.70;20.70;;;26.30;2201.60;;;;;;5022987;28;20067;-59
2021/12/12 08:48:51;;;;;;;35.80;27.25;;;26.30;2201.60;;;;;;5017430;28;20021;-63
2021/12/12 08:51:32;;;;;;;23.17;17.85;;;26.20;2201.60;;;;;;5020965;28;20048;-54
2021/12/12 08:54:03;;;;;;;35.50;25.08;;;26.30;2201.60;;;;;;5029741;28;20068;-59
2021/12/12 08:56:51;;;;;;;44.53;34.20;;;26.40;2201.60;;;;;;5029426;28;20492;-66
2021/12/12 08:59:24;;;;;;;57.80;34.63;;;26.40;2201.60;;;;;;5028717;28;20045;-57
2021/12/12 09:01:53;;;;;;;53.28;33.80;;;26.50;2201.60;;;;;;5029393;28;20119;-54
2021/12/12 09:04:19;;;;;;;23.90;16.92;;;26.40;2201.60;;;;;;5029529;28;20025;-54
2021/12/12 09:06:55;;;;;;;30.88;17.75;;;26.30;2201.60;;;;;;5021881;28;20112;-54
2021/12/12 09:09:29;;;;;;;30.30;23.90;;;26.10;2201.60;;;;;;5024502;28;20040;-62
2021/12/12 09:12:17;;;;;;;35.95;32.03;;;26.20;2201.60;;;;;;5029373;28;20025;-55
2021/12/12 09:14:50;;;;;;;27.55;16.35;;;26.10;2201.60;;;;;;5029655;28;20495;-61
2021/12/12 09:17:21;;;;;;;24.42;14.70;;;26.00;2201.60;;;;;;5020895;28;20091;-54
2021/12/12 09:19:53;;;;;;;32.08;19.45;;;26.00;2201.60;;;;;;5017115;28;20088;-53
2021/12/12 09:22:25;;;;;;;26.42;18.38;;;26.10;2201.60;;;;;;5007448;28;20128;-56
2021/12/12 09:25:02;;;;;;;24.75;15.45;;;26.10;2201.60;;;;;;5017332;28;20049;-69
2021/12/12 09:27:36;;;;;;;24.88;14.93;;;26.20;2201.60;;;;;;5031779;28;20033;-60
2021/12/12 09:30:13;;;;;;;46.40;33.13;;;26.00;2201.60;;;;;;5031985;28;20555;-62
2021/12/12 09:32:47;;;;;;;27.13;15.98;;;26.20;2201.60;;;;;;5031409;28;20034;-56
2021/12/12 09:35:17;;;;;;;38.17;26.83;;;26.10;2201.60;;;;;;5029956;28;20051;-57
2021/12/12 09:37:57;;;;;;;28.95;14.60;;;26.20;2201.60;;;;;;5031850;28;20022;-62
2021/12/12 09:40:29;;;;;;;25.98;15.07;;;26.20;2201.60;;;;;;5029529;28;20116;-56
2021/12/12 09:43:29;;;;;;;28.63;15.60;;;26.20;2201.60;;;;;;5017276;28;20041;-55
2021/12/12 09:46:38;;;;;;;31.58;21.45;;;26.10;2201.60;;;;;;4950742;29;20130;-61
2021/12/12 09:52:53;;;;;;;31.67;16.13;;;26.20;2201.60;;;;;;4936872;29;20055;-60
2021/12/12 09:55:32;;;;;;;26.85;16.23;;;26.10;2201.60;;;;;;4912261;29;20451;-66
2021/12/12 09:58:20;;;;;;;36.45;23.42;;;26.00;2201.60;;;;;;4912663;29;20051;-61
2021/12/12 10:01:09;;;;;;;28.98;19.70;;;26.10;2201.60;;;;;;4912273;29;20050;-53
2021/12/12 10:03:49;;;;;;;24.80;17.08;;;26.20;2201.60;;;;;;4911246;29;20123;-53
2021/12/12 10:06:32;;;;;;;30.05;19.50;;;26.20;2201.60;;;;;;4905514;29;20085;-55
2021/12/12 10:09:20;;;;;;;21.88;14.05;;;26.00;2201.60;;;;;;4899177;29;20044;-57
2021/12/12 10:12:02;;;;;;;28.95;20.23;;;26.00;2201.60;;;;;;4896882;29;20037;-53
2021/12/12 10:14:43;;;;;;;25.83;15.38;;;26.10;2201.60;;;;;;4910903;29;20065;-61
2021/12/12 10:17:21;;;;;;;29.63;16.92;;;26.20;2201.60;;;;;;4911506;29;20092;-52
2021/12/12 10:20:02;;;;;;;30.38;18.58;;;26.20;2201.60;;;;;;4911917;29;20687;-56
2021/12/12 10:22:28;;;;;;;23.60;13.73;;;26.20;2201.60;;;;;;4938559;28;20456;-56
2021/12/12 10:25:10;;;;;;;32.47;19.30;;;26.20;2201.60;;;;;;4955594;28;20055;-61
2021/12/12 10:27:59;;;;;;;28.05;21.27;;;26.40;2201.60;;;;;;4956289;28;20047;-54
2021/12/12 10:30:33;;;;;;;33.85;22.33;;;26.40;2201.60;;;;;;4959001;28;20038;-55
2021/12/12 10:33:15;;;;;;;38.42;26.27;;;26.40;2201.60;;;;;;5005861;28;20045;-56
2021/12/12 10:36:01;;;;;;;41.43;31.73;;;26.40;2201.60;;;;;;5025113;28;20060;-59
2021/12/12 10:38:53;;;;;;;30.02;16.45;;;26.20;2201.60;;;;;;5027464;28;20025;-61
2021/12/12 10:41:35;;;;;;;29.90;17.33;;;26.40;2201.60;;;;;;5009998;28;20025;-57
2021/12/12 10:44:21;;;;;;;28.33;17.75;;;26.50;2201.60;;;;;;5029983;28;20541;-53
2021/12/12 10:47:05;;;;;;;29.40;17.70;;;26.50;2201.60;;;;;;5030255;28;20029;-62
2021/12/12 10:49:56;;;;;;;46.92;30.25;;;26.40;2201.60;;;;;;5029736;28;20041;-61
2021/12/12 10:52:58;;;;;;;32.05;22.48;;;26.40;2201.60;;;;;;5026418;28;20403;-58
2021/12/12 10:55:35;;;;;;;27.67;16.60;;;26.30;2201.60;;;;;;5024379;28;20132;-60
2021/12/12 10:58:04;;;;;;;38.05;25.90;;;26.50;2201.60;;;;;;5030406;28;20026;-59
2021/12/12 11:00:34;;;;;;;23.52;15.43;;;51.30;2227.20;;;;;;5027889;28;20037;-60
2021/12/12 11:03:04;;;;;;;28.05;19.83;;;26.50;2201.60;;;;;;5030198;28;20108;-54
2021/12/12 11:05:41;;;;;;;35.58;26.25;;;26.40;2201.60;;;;;;5030238;28;20033;-60
2021/12/12 11:08:10;;;;;;;23.92;15.68;;;26.50;2201.60;;;;;;5031739;28;20024;-61
2021/12/12 11:10:39;;;;;;;22.52;17.20;;;26.50;2201.60;;;;;;5031330;28;20074;-60
2021/12/12 11:13:14;;;;;;;24.35;16.42;;;51.20;2227.20;;;;;;5031501;28;20021;-55
2021/12/12 11:15:49;;;;;;;29.80;20.15;;;51.30;2227.20;;;;;;5030504;28;20495;-57
2021/12/12 11:18:20;;;;;;;25.63;18.00;;;51.30;2227.20;;;;;;5020755;28;20052;-55
2021/12/12 11:21:03;;;;;;;29.10;17.52;;;51.30;2227.20;;;;;;5021185;28;20369;-60
2021/12/12 11:23:32;;;;;;;31.98;18.85;;;51.40;2227.20;;;;;;5013777;28;20128;-57
2021/12/12 11:26:13;;;;;;;30.88;17.98;;;26.50;2201.60;;;;;;5021465;28;20451;-61
2021/12/12 11:29:01;;;;;;;25.15;17.15;;;26.50;2201.60;;;;;;5028916;28;20076;-59
2021/12/12 11:31:41;;;;;;;36.20;25.05;;;26.50;2201.60;;;;;;5029460;28;20611;-61
2021/12/12 11:34:08;;;;;;;25.50;16.52;;;51.20;2227.20;;;;;;5029501;28;20543;-59
2021/12/12 11:37:04;;;;;;;24.27;17.95;;;51.30;2227.20;;;;;;5029691;28;20734;-57
2021/12/12 11:40:01;;;;;;;38.42;24.05;;;51.30;2227.20;;;;;;4968145;28;20039;-58
2021/12/12 11:42:49;;;;;;;35.30;23.95;;;51.40;2227.20;;;;;;4967151;28;20041;-55
2021/12/12 11:45:23;;;;;;;26.15;13.70;;;51.30;2227.20;;;;;;4963678;28;20026;-57
2021/12/12 11:48:00;;;;;;;23.63;14.27;;;51.30;2227.20;;;;;;4966071;28;20026;-58
2021/12/12 11:51:01;;;;;;;19.63;15.15;;;51.40;2227.20;;;;;;4966040;28;20050;-55
2021/12/12 11:53:43;;;;;;;21.65;13.57;;;51.50;2227.20;;;;;;4967120;28;20576;-55
2021/12/12 11:56:45;;;;;;;16.58;11.43;;;51.80;2227.20;;;;;;4967549;28;20121;-59
2021/12/12 11:59:30;;;;;;;23.27;15.50;;;51.70;2227.20;;;;;;4967785;28;20041;-54
2021/12/12 12:02:26;;;;;;;27.73;19.70;;;51.50;2227.20;;;;;;4967969;28;20034;-56
2021/12/12 12:05:19;;;;;;;20.63;13.88;;;51.70;2227.20;;;;;;4967810;28;20058;-59
2021/12/12 12:08:01;;;;;;;25.50;20.75;;;51.90;2227.20;;;;;;4967282;28;20035;-53
2021/12/12 12:10:59;;;;;;;43.97;37.17;;;51.90;2227.20;;;;;;4951548;28;20039;-56
2021/12/12 12:14:04;;;;;;;19.13;12.98;;;51.80;2227.20;;;;;;4967576;28;20033;-54
2021/12/12 12:16:45;;;;;;;18.75;15.25;;;51.40;2227.20;;;;;;4980720;28;20344;-54
2021/12/12 12:19:33;;;;;;;18.25;14.13;;;51.30;2227.20;;;;;;5028866;28;20112;-59
2021/12/12 12:22:11;;;;;;;19.95;14.35;;;51.50;2227.20;;;;;;5032688;28;20475;-58
2021/12/12 12:25:25;;;;;;;18.92;13.07;;;51.70;2227.20;;;;;;5032746;28;20057;-63
2021/12/12 12:28:03;;;;;;;15.35;11.38;;;51.60;2227.20;;;;;;5033123;28;20095;-57
2021/12/12 12:30:31;;;;;;;20.27;13.82;;;51.50;2227.20;;;;;;5032712;28;20041;-63
2021/12/12 12:33:12;;;;;;;15.98;14.30;;;51.60;2227.20;;;;;;5032580;28;20088;-58
2021/12/12 12:36:16;;;;;;;18.35;12.50;;;51.80;2227.20;;;;;;5032599;28;20041;-54
2021/12/12 12:39:38;;;;;;;17.40;12.20;;;51.80;2227.20;;;;;;5033087;28;20021;-59
2021/12/12 12:46:02;;;;;;;22.17;15.20;;;51.60;2227.20;;;;;;4933545;29;20489;-54
2021/12/12 12:48:52;;;;;;;18.73;10.93;;;51.70;2227.20;;;;;;4934021;29;20028;-54
2021/12/12 12:51:41;;;;;;;16.45;11.23;;;51.60;2227.20;;;;;;4933533;29;20032;-64
2021/12/12 12:54:29;;;;;;;15.13;11.05;;;51.30;2227.20;;;;;;4933449;29;20071;-58
2021/12/12 12:57:30;;;;;;;14.85;10.18;;;51.30;2227.20;;;;;;4933822;29;20036;-53
2021/12/12 13:00:08;;;;;;;18.42;12.70;;;51.30;2227.20;;;;;;4936218;29;20039;-66
2021/12/12 13:03:15;;;;;;;22.67;15.55;;;51.40;2227.20;;;;;;4937136;29;20032;-66
2021/12/12 13:06:02;;;;;;;16.75;12.18;;;26.50;2201.60;;;;;;4937186;29;20419;-61
2021/12/12 13:08:45;;;;;;;15.05;9.80;;;51.30;2227.20;;;;;;4936966;29;20118;-55
2021/12/12 13:11:14;;;;;;;14.95;9.55;;;51.30;2227.20;;;;;;4936991;29;20024;-58
2021/12/12 13:13:51;;;;;;;15.63;10.55;;;26.50;2201.60;;;;;;5020448;28;20034;-55
2021/12/12 13:16:24;;;;;;;18.10;12.82;;;51.30;2227.20;;;;;;5035996;28;20038;-64
2021/12/12 13:19:09;;;;;;;14.18;9.75;;;51.30;2227.20;;;;;;5036320;28;20021;-66